METAR Data
IDs: Format: Raw Decoded Include TAF

Data at: 0253 UTC 23 Apr 2021

K2IS 230235Z AUTO 06010KT 10SM CLR 21/19 A3010 RMK AO2 T02130186
K2IS 230215Z AUTO 06010KT 10SM CLR 21/19 A3010 RMK AO2 T02130186
K2IS 230155Z AUTO 06009KT 10SM CLR 22/18 A3009 RMK AO2 T02160185
K2IS 230135Z AUTO 06010KT 10SM CLR 22/19 A3009 RMK AO2 T02210185
K2IS 230115Z AUTO 07010KT 10SM CLR 23/19 A3008 RMK AO2 T02260185
K2IS 230055Z AUTO 06011KT 10SM CLR 23/19 A3006 RMK AO2 T02260185
K2IS 230035Z AUTO 06010KT 10SM CLR 23/19 A3006 RMK AO2 LTG DSNT NW T02250186
K2IS 230015Z AUTO 06011KT 10SM CLR 23/19 A3006 RMK AO2 T02300186
K2IS 222355Z AUTO 06013KT 10SM CLR 24/19 A3005 RMK AO2 T02370187 10292 20236 402920163
K2IS 222335Z AUTO 06010KT 10SM CLR 24/19 A3005 RMK AO2 T02430187
K2IS 222315Z AUTO 07012KT 10SM CLR 25/19 A3004 RMK AO2 T02520190
K2IS 222255Z AUTO 06013KT 10SM CLR 26/19 A3004 RMK AO2 LTG DSNT NW
K2IS 222235Z AUTO 06011KT 10SM CLR 27/19 A3003 RMK AO2 T02670186
K2IS 222215Z AUTO 06011KT 10SM CLR 27/18 A3003 RMK AO2 T02730183
K2IS 222155Z AUTO 07010KT 10SM CLR 28/17 A3003 RMK AO2 LTG DSNT NW T02800167
K2IS 222135Z AUTO 07009KT 10SM SCT120 29/12 A3003 RMK AO2 T02850123
K2IS 222110Z AUTO 02004KT 10SM SCT120 29/10 A3003 RMK AO2 T02880097
K2IS 222050Z AUTO 03003KT 10SM SCT120 29/11 A3003 RMK AO2 LTG DSNT NW T02870105
K2IS 222035Z AUTO 05006KT 10SM CLR 29/11 A3003 RMK AO2 T02880113
K2IS 222015Z AUTO 05005KT 10SM CLR 28/12 A3003 RMK AO2 T02840119
K2IS 221950Z AUTO 02005KT 10SM CLR 28/14 A3003 RMK AO2 T02840137
K2IS 221935Z AUTO 00000KT 10SM CLR 28/13 A3004 RMK AO2 T02830134
K2IS 221915Z AUTO 02008KT 10SM CLR 28/15 A3005 RMK AO2 T02800148
K2IS 221855Z AUTO 05006KT 10SM CLR 28/15 A3005 RMK AO2 T02790148
K2IS 221835Z AUTO 06006KT 10SM CLR 28/15 A3006 RMK AO2 T02790147
K2IS 221815Z AUTO 03007KT 10SM CLR 27/16 A3007 RMK AO2 T02740160
K2IS 221755Z AUTO 06008KT 10SM CLR 27/17 A3007 RMK AO2 T02680169 10274 20177
K2IS 221735Z AUTO 05007KT 10SM CLR 27/17 A3007 RMK AO2 T02680171
K2IS 221715Z AUTO 09004KT 10SM CLR 26/18 A3008 RMK AO2 T02620176
K2IS 221655Z AUTO 02007KT 10SM CLR 26/18 A3009 RMK AO2 LTG DSNT NW T02590179
K2IS 221635Z AUTO 05010G14KT 020V080 10SM CLR 26/19 A3009 RMK AO2 T02550185
K2IS 221615Z AUTO 05009KT 10SM CLR 26/18 A3009 RMK AO2 T02550184
K2IS 221555Z AUTO 04011KT 10SM CLR 25/18 A3009 RMK AO2 T02500180
K2IS 221535Z AUTO 07012KT 10SM CLR 25/18 A3010 RMK AO2 T02460177
K2IS 221515Z AUTO 04010KT 10SM CLR 25/18 A3011 RMK AO2 T02450180
K2IS 221455Z AUTO 05012KT 10SM CLR 24/18 A3010 RMK AO2 T02430178
K2IS 221435Z AUTO 03012G18KT 10SM CLR 24/17 A3009 RMK AO2 T02380174
K2IS 221415Z AUTO 04011KT 10SM CLR 23/17 A3010 RMK AO2 T02320174
K2IS 221355Z AUTO 04013KT 10SM CLR 23/17 A3009 RMK AO2 T02260168
K2IS 221335Z AUTO 03011KT 10SM CLR 22/17 A3009 RMK AO2 T02200166
K2IS 221315Z AUTO 02013G17KT 10SM SCT085 SCT120 22/17 A3009 RMK AO2 T02160166
K2IS 221255Z AUTO 02011KT 10SM SCT085 BKN120 21/17 A3009 RMK AO2 T02070166
K2IS 221235Z AUTO 36008KT 10SM BKN120 19/17 A3009 RMK AO2 T01950170
K2IS 221215Z AUTO 36009KT 10SM BKN120 18/16 A3008 RMK AO2 T01820164
K2IS 221155Z AUTO 35006KT 10SM CLR 18/16 A3008 RMK AO2 T01770161 10193 20163 70007
K2IS 221135Z AUTO 34006KT 10SM CLR 17/16 A3008 RMK AO2 T01710158
K2IS 221115Z AUTO 34006KT 10SM CLR 17/15 A3006 RMK AO2 T01650155
K2IS 221055Z AUTO 33004KT 10SM CLR 17/15 A3006 RMK AO2 T01660154
K2IS 221035Z AUTO 35006KT 10SM CLR 17/15 A3005 RMK AO2 T01680154
K2IS 221015Z AUTO 34006KT 10SM SCT120 17/16 A3004 RMK AO2 T01700155
K2IS 220955Z AUTO 33003KT 10SM SCT120 17/16 A3004 RMK AO2 T01710156
K2IS 220935Z AUTO 33003KT 10SM SCT120 17/16 A3004 RMK AO2 T01740160
K2IS 220915Z AUTO 34004KT 10SM SCT070 SCT120 17/16 A3003 RMK AO2 LTG DSNT NW T01750160
K2IS 220855Z AUTO 35005KT 10SM SCT070 BKN120 18/16 A3002 RMK AO2 T01780163
K2IS 220835Z AUTO 32005KT 10SM SCT080 BKN120 18/16 A3003 RMK AO2 LTG DSNT NW T01800162
K2IS 220815Z AUTO 31005KT 10SM SCT080 OVC120 18/16 A3002 RMK AO2 T01830164
K2IS 220755Z AUTO 32007KT 10SM SCT080 OVC120 18/17 A3002 RMK AO2 T01820165
K2IS 220735Z AUTO 32005KT 10SM BKN080 OVC120 18/17 A3002 RMK AO2 T01820167
K2IS 220710Z AUTO 30006KT 10SM SCT060 BKN080 OVC120 18/17 A3002 RMK AO2 T01820166
K2IS 220655Z AUTO 30006KT 10SM SCT060 BKN080 18/17 A3003 RMK AO2 T01810167
K2IS 220635Z AUTO 31005KT 10SM CLR 18/16 A3002 RMK AO2 T01800164
K2IS 220615Z AUTO 31005KT 10SM CLR 19/17 A3002 RMK AO2 T01870169
K2IS 220555Z AUTO 31006KT 10SM CLR 19/17 A3003 RMK AO2 T01920169 10248 20192
K2IS 220535Z AUTO 30007KT 10SM CLR 20/17 A3003 RMK AO2 LTG DSNT NW T01960172
K2IS 220515Z AUTO 30007KT 10SM CLR 20/18 A3004 RMK AO2 T02000179
K2IS 220455Z AUTO 30006KT 10SM CLR 20/18 A3004 RMK AO2 T02030182
K2IS 220435Z AUTO 29005KT 10SM CLR 20/19 A3004 RMK AO2 T02040186
K2IS 220415Z AUTO 29006KT 10SM CLR 21/19 A3004 RMK AO2 T02120187
K2IS 220355Z AUTO 29006KT 10SM CLR 21/19 A3004 RMK AO2 T02130192
K2IS 220335Z AUTO 29005KT 10SM CLR 22/19 A3004 RMK AO2 T02170194
K2IS 220315Z AUTO 26005KT 10SM CLR 22/20 A3004 RMK AO2 T02190196
K2IS 220255Z AUTO 25005KT 10SM SCT110 22/20 A3003 RMK AO2 T02200199
K2IS 220235Z AUTO 25004KT 10SM CLR 22/20 A3002 RMK AO2 T02200199
K2IS 220215Z AUTO 27004KT 10SM CLR 22/20 A3001 RMK AO2 T02210197
K2IS 220155Z AUTO 27004KT 10SM CLR 22/20 A3001 RMK AO2 T02190198
K2IS 220135Z AUTO 26005KT 10SM CLR 22/20 A3001 RMK AO2 T02210196
K2IS 220115Z AUTO 30004KT 10SM CLR 23/19 A3000 RMK AO2 T02250193
K2IS 220055Z AUTO 30005KT 10SM CLR 23/19 A3000 RMK AO2 LTG DSNT NW T02290195
K2IS 220035Z AUTO 30005KT 10SM CLR 23/20 A3000 RMK AO2 T02320199
K2IS 220015Z AUTO 28006KT 10SM SCT055 24/20 A3000 RMK AO2 T02390201
K2IS 212355Z AUTO 26004KT 10SM SCT050 25/20 A2999 RMK AO2 T02490202 10286 20248 402860200
K2IS 212335Z AUTO 26005KT 10SM SCT050 25/20 A2999 RMK AO2 T02550201
K2IS 212315Z AUTO 26007KT 10SM CLR 27/19 A2999 RMK AO2 T02650193
K2IS 212255Z AUTO 27008KT 10SM SCT055 SCT075 SCT120 27/19 A2999 RMK AO2 T02740190
K2IS 212235Z AUTO 26006KT 10SM BKN065 OVC075 28/19 A2999 RMK AO2 T02750194
K2IS 212215Z AUTO 26007KT 10SM BKN065 OVC080 27/19 A2998 RMK AO2 T02740191
K2IS 212155Z AUTO 26007KT 10SM SCT043 OVC065 27/19 A2999 RMK AO2 LTG DSNT NW T02710191
K2IS 212135Z AUTO 27008KT 10SM OVC065 28/19 A2998 RMK AO2 LTG DSNT NW T02770195
K2IS 212115Z AUTO 28007KT 10SM SCT040 BKN050 BKN065 28/20 A2998 RMK AO2 T02770196
K2IS 212055Z AUTO 32004KT 10SM SCT036 SCT065 28/20 A2998 RMK AO2 T02800198
K2IS 212035Z AUTO 32005KT 10SM SCT035 28/21 A2997 RMK AO2 T02790211
K2IS 212015Z AUTO 30006KT 10SM CLR 28/21 A2997 RMK AO2 T02810210
K2IS 211955Z AUTO 33007KT 10SM CLR 28/21 A2997 RMK AO2 T02760214
K2IS 211935Z AUTO 33004KT 10SM SCT027 SCT036 BKN045 27/21 A2997 RMK AO2 T02700214
K2IS 211915Z AUTO 30009KT 10SM BKN025 BKN033 BKN049 27/22 A2999 RMK AO2 T02720217
K2IS 211855Z AUTO 28006KT 10SM SCT025 SCT049 SCT065 27/21 A2999 RMK AO2 T02720214
K2IS 211835Z AUTO 29007KT 10SM SCT025 SCT080 SCT085 27/22 A3001 RMK AO2 T02710218
K2IS 211815Z AUTO 31006KT 10SM SCT024 SCT050 BKN080 27/22 A3001 RMK AO2 T02700217
K2IS 211755Z AUTO 28007KT 10SM SCT024 SCT035 OVC055 27/22 A3002 RMK AO2 T02670220 10271 20212 60007
K2IS 211735Z AUTO 29006KT 10SM BKN022 BKN038 BKN070 27/22 A3003 RMK AO2 T02670217
K2IS 211715Z AUTO 28006KT 10SM BKN020 BKN075 27/22 A3002 RMK AO2 T02690220
K2IS 211655Z AUTO 29005KT 10SM BKN020 BKN050 OVC075 26/22 A3002 RMK AO2 T02650218
K2IS 211635Z AUTO 30004KT 10SM BKN020 BKN030 OVC050 26/22 A3003 RMK AO2 T02570222
K2IS 211615Z AUTO 32003KT 10SM SCT016 SCT021 BKN030 26/22 A3004 RMK AO2 T02570217
K2IS 211555Z AUTO 33005KT 10SM SCT014 SCT020 26/23 A3003 RMK AO2 T02580225
K2IS 211535Z AUTO 31004KT 10SM VCTS SCT012 SCT017 26/23 A3003 RMK AO2 LTG DSNT SW T02550226
K2IS 211515Z AUTO 31004KT 10SM SCT012 25/23 A3003 RMK AO2 LTG DSNT W T02510225
K2IS 211455Z AUTO 25006KT 10SM CLR 25/23 A3003 RMK AO2 LTG DSNT W T02450225 60007